createdAt,value
2022-12-05T00:00:40.484Z,989.11
2022-12-05T00:01:40.530Z,989.12
2022-12-05T00:02:40.534Z,989.09
2022-12-05T00:03:40.645Z,989.12
2022-12-05T00:04:40.515Z,989.14
2022-12-05T00:05:40.464Z,989.14
2022-12-05T00:06:40.452Z,989.08
2022-12-05T00:07:40.492Z,989.11
2022-12-05T00:08:40.436Z,989.11
2022-12-05T00:09:40.487Z,989.18
2022-12-05T00:10:40.439Z,989.14
2022-12-05T00:11:40.426Z,989.22
2022-12-05T00:12:40.441Z,989.24
2022-12-05T00:13:40.419Z,989.18
2022-12-05T00:14:40.526Z,989.22
2022-12-05T00:15:40.418Z,989.21
2022-12-05T00:16:40.481Z,989.15
2022-12-05T00:17:40.453Z,989.20
2022-12-05T00:18:40.399Z,989.23
2022-12-05T00:19:40.368Z,989.16
2022-12-05T00:20:40.492Z,989.21
2022-12-05T00:21:40.381Z,989.17
2022-12-05T00:22:40.392Z,989.22
2022-12-05T00:23:40.365Z,989.25
2022-12-05T00:24:40.382Z,989.23
2022-12-05T00:25:40.452Z,989.27
2022-12-05T00:26:40.361Z,989.29
2022-12-05T00:27:47.878Z,989.30
2022-12-05T00:28:40.356Z,989.32
2022-12-05T00:29:40.308Z,989.34
2022-12-05T00:30:40.319Z,989.22
2022-12-05T00:31:40.535Z,989.23
2022-12-05T00:32:40.305Z,989.27
2022-12-05T00:33:40.329Z,989.25
2022-12-05T00:34:40.312Z,989.25
2022-12-05T00:35:40.319Z,989.21
2022-12-05T00:36:40.350Z,989.25
2022-12-05T00:37:40.311Z,989.27
2022-12-05T00:38:40.285Z,989.27
2022-12-05T00:39:40.262Z,989.25
2022-12-05T00:40:40.261Z,989.28
2022-12-05T00:41:40.311Z,989.32
2022-12-05T00:42:40.381Z,989.26
2022-12-05T00:43:40.241Z,989.29
2022-12-05T00:44:40.293Z,989.29
2022-12-05T00:45:40.328Z,989.27
2022-12-05T00:46:40.282Z,989.28
2022-12-05T00:47:40.241Z,989.29
2022-12-05T00:48:40.211Z,989.28
2022-12-05T00:49:40.246Z,989.26
2022-12-05T00:50:40.213Z,989.31
2022-12-05T00:51:40.201Z,989.35
2022-12-05T00:52:40.211Z,989.30
2022-12-05T00:53:40.311Z,989.35
2022-12-05T00:54:40.204Z,989.41
2022-12-05T00:55:40.201Z,989.36
2022-12-05T00:56:40.214Z,989.41
2022-12-05T00:57:40.181Z,989.34
2022-12-05T00:58:40.229Z,989.42
2022-12-05T00:59:40.166Z,989.38
2022-12-05T01:00:40.191Z,989.44
2022-12-05T01:01:40.307Z,989.44
2022-12-05T01:02:40.243Z,989.42
2022-12-05T01:03:40.150Z,989.37
2022-12-05T01:04:40.272Z,989.38
2022-12-05T01:05:40.156Z,989.43
2022-12-05T01:06:40.149Z,989.38
2022-12-05T01:07:40.156Z,989.34
2022-12-05T01:08:40.096Z,989.39
2022-12-05T01:09:40.167Z,989.36
2022-12-05T01:10:40.085Z,989.36
2022-12-05T01:11:41.659Z,989.41
2022-12-05T01:12:41.126Z,989.40
2022-12-05T01:13:40.087Z,989.41
2022-12-05T01:14:40.086Z,989.42
2022-12-05T01:15:40.235Z,989.43
2022-12-05T01:16:40.214Z,989.43
2022-12-05T01:17:40.057Z,989.47
2022-12-05T01:18:40.065Z,989.45
2022-12-05T01:19:40.104Z,989.44
2022-12-05T01:20:40.098Z,989.48
2022-12-05T01:21:40.059Z,989.42
2022-12-05T01:22:40.060Z,989.46
2022-12-05T01:23:40.069Z,989.39
2022-12-05T01:24:40.055Z,989.39
2022-12-05T01:25:40.056Z,989.45
2022-12-05T01:26:40.071Z,989.49
2022-12-05T01:27:40.038Z,989.41
2022-12-05T01:28:40.123Z,989.42
2022-12-05T01:29:40.040Z,989.46
2022-12-05T01:30:40.034Z,989.48
2022-12-05T01:31:40.149Z,989.49
2022-12-05T01:32:39.996Z,989.46
2022-12-05T01:33:40.025Z,989.49
2022-12-05T01:34:40.018Z,989.48
2022-12-05T01:35:40.016Z,989.45
2022-12-05T01:36:40.020Z,989.54
2022-12-05T01:37:39.986Z,989.44
2022-12-05T01:38:39.990Z,989.48
2022-12-05T01:39:39.972Z,989.56
2022-12-05T01:40:39.982Z,989.47
2022-12-05T01:41:39.948Z,989.51
2022-12-05T01:42:40.080Z,989.50
2022-12-05T01:43:39.991Z,989.48
2022-12-05T01:44:39.966Z,989.51
2022-12-05T01:45:40.012Z,989.54
2022-12-05T01:46:39.919Z,989.54
2022-12-05T01:47:39.950Z,989.56
2022-12-05T01:48:40.037Z,989.59
2022-12-05T01:49:39.939Z,989.48
2022-12-05T01:50:39.918Z,989.53
2022-12-05T01:51:39.943Z,989.52
2022-12-05T01:52:39.908Z,989.54
2022-12-05T01:53:39.936Z,989.49
2022-12-05T01:54:39.909Z,989.55
2022-12-05T01:55:39.873Z,989.57
2022-12-05T01:56:39.869Z,989.53
2022-12-05T01:57:39.867Z,989.56
2022-12-05T01:58:39.853Z,989.57
2022-12-05T01:59:39.978Z,989.54
2022-12-05T02:00:39.858Z,989.57
2022-12-05T02:01:39.890Z,989.52
2022-12-05T02:02:39.893Z,989.53
2022-12-05T02:03:39.870Z,989.52
2022-12-05T02:04:39.858Z,989.53
2022-12-05T02:05:39.803Z,989.55
2022-12-05T02:06:39.807Z,989.52
2022-12-05T02:07:39.908Z,989.48
2022-12-05T02:08:39.819Z,989.52
2022-12-05T02:09:39.841Z,989.49
2022-12-05T02:10:39.815Z,989.49
2022-12-05T02:11:39.777Z,989.55
2022-12-05T02:12:39.794Z,989.50
2022-12-05T02:13:39.807Z,989.54
2022-12-05T02:14:39.791Z,989.55
2022-12-05T02:15:39.823Z,989.50
2022-12-05T02:16:39.780Z,989.48
2022-12-05T02:17:39.743Z,989.56
2022-12-05T02:18:39.781Z,989.61
2022-12-05T02:19:39.791Z,989.58
2022-12-05T02:20:39.760Z,989.56
2022-12-05T02:21:39.859Z,989.57
2022-12-05T02:22:39.758Z,989.57
2022-12-05T02:23:39.696Z,989.54
2022-12-05T02:24:39.724Z,989.53
2022-12-05T02:25:39.712Z,989.61
2022-12-05T02:26:39.718Z,989.58
2022-12-05T02:27:39.703Z,989.57
2022-12-05T02:28:39.728Z,989.52
2022-12-05T02:29:39.682Z,989.56
2022-12-05T02:30:39.709Z,989.57
2022-12-05T02:31:39.717Z,989.55
2022-12-05T02:32:39.695Z,989.56
2022-12-05T02:33:39.680Z,989.63
2022-12-05T02:34:39.664Z,989.64
2022-12-05T02:35:39.698Z,989.61
2022-12-05T02:36:39.671Z,989.63
2022-12-05T02:37:39.671Z,989.54
2022-12-05T02:38:39.650Z,989.57
2022-12-05T02:39:39.620Z,989.55
2022-12-05T02:40:39.618Z,989.60
2022-12-05T02:41:39.653Z,989.53
2022-12-05T02:42:39.665Z,989.54
2022-12-05T02:43:39.621Z,989.57
2022-12-05T02:44:39.633Z,989.52
2022-12-05T02:45:39.670Z,989.49
2022-12-05T02:46:39.583Z,989.50
2022-12-05T02:47:39.602Z,989.52
2022-12-05T02:48:39.619Z,989.57
2022-12-05T02:49:39.610Z,989.42
2022-12-05T02:50:39.586Z,989.45
2022-12-05T02:51:39.585Z,989.48
2022-12-05T02:52:39.577Z,989.53
2022-12-05T02:53:39.614Z,989.51
2022-12-05T02:54:39.603Z,989.42
2022-12-05T02:55:39.598Z,989.48
2022-12-05T02:56:39.542Z,989.44
2022-12-05T02:57:39.576Z,989.49
2022-12-05T02:58:39.554Z,989.48
2022-12-05T02:59:39.576Z,989.48
2022-12-05T03:00:39.534Z,989.43
2022-12-05T03:01:39.586Z,989.50
2022-12-05T03:02:39.499Z,989.39
2022-12-05T03:03:39.562Z,989.47
2022-12-05T03:04:39.623Z,989.42
2022-12-05T03:05:39.539Z,989.45
2022-12-05T03:06:39.509Z,989.39
2022-12-05T03:07:39.554Z,989.41
2022-12-05T03:08:39.520Z,989.43
2022-12-05T03:09:39.498Z,989.42
2022-12-05T03:10:39.488Z,989.46
2022-12-05T03:11:39.527Z,989.40
2022-12-05T03:12:39.493Z,989.44
2022-12-05T03:13:39.468Z,989.43
2022-12-05T03:14:39.494Z,989.39
2022-12-05T03:15:39.502Z,989.48
2022-12-05T03:16:39.509Z,989.52
2022-12-05T03:17:39.487Z,989.52
2022-12-05T03:18:39.421Z,989.50
2022-12-05T03:19:40.463Z,989.51
2022-12-05T03:20:39.456Z,989.54
2022-12-05T03:21:39.458Z,989.55
2022-12-05T03:22:39.411Z,989.51
2022-12-05T03:23:39.442Z,989.57
2022-12-05T03:24:39.440Z,989.50
2022-12-05T03:25:39.405Z,989.53
2022-12-05T03:26:39.422Z,989.52
2022-12-05T03:27:39.403Z,989.56
2022-12-05T03:28:39.388Z,989.60
2022-12-05T03:29:39.390Z,989.56
2022-12-05T03:30:39.390Z,989.50
2022-12-05T03:31:39.396Z,989.52
2022-12-05T03:32:39.402Z,989.48
2022-12-05T03:33:39.379Z,989.51
2022-12-05T03:34:39.351Z,989.56
2022-12-05T03:35:39.340Z,989.54
2022-12-05T03:36:39.342Z,989.59
2022-12-05T03:37:39.370Z,989.57
2022-12-05T03:38:39.500Z,989.52
2022-12-05T03:39:39.327Z,989.58
2022-12-05T03:40:39.331Z,989.62
2022-12-05T03:41:39.328Z,989.61
2022-12-05T03:42:39.336Z,989.57
2022-12-05T03:43:39.344Z,989.62
2022-12-05T03:44:39.323Z,989.66
2022-12-05T03:45:39.394Z,989.59
2022-12-05T03:46:39.374Z,989.54
2022-12-05T03:47:39.290Z,989.63
2022-12-05T03:48:39.271Z,989.60
2022-12-05T03:49:39.392Z,989.63
2022-12-05T03:50:39.261Z,989.62
2022-12-05T03:51:39.255Z,989.60
2022-12-05T03:53:11.023Z,989.66
2022-12-05T03:53:41.304Z,989.62
2022-12-05T03:54:39.308Z,989.66
2022-12-05T03:55:39.269Z,989.66
2022-12-05T03:56:39.260Z,989.60
2022-12-05T03:57:39.241Z,989.59
2022-12-05T03:58:39.240Z,989.63
2022-12-05T03:59:39.218Z,989.61
2022-12-05T04:00:39.247Z,989.54
2022-12-05T04:01:39.234Z,989.64
2022-12-05T04:02:39.220Z,989.62
2022-12-05T04:03:39.778Z,989.62
2022-12-05T04:04:39.200Z,989.59
2022-12-05T04:05:39.273Z,989.60
2022-12-05T04:06:39.171Z,989.65
2022-12-05T04:07:39.234Z,989.59
2022-12-05T04:08:39.199Z,989.60
2022-12-05T04:09:39.155Z,989.63
2022-12-05T04:10:39.207Z,989.62
2022-12-05T04:11:39.207Z,989.66
2022-12-05T04:12:39.143Z,989.67
2022-12-05T04:13:39.149Z,989.71
2022-12-05T04:14:39.138Z,989.69
2022-12-05T04:15:39.250Z,989.68
2022-12-05T04:16:39.191Z,989.65
2022-12-05T04:17:39.151Z,989.72
2022-12-05T04:18:39.127Z,989.70
2022-12-05T04:19:39.113Z,989.67
2022-12-05T04:20:39.142Z,989.66
2022-12-05T04:21:39.143Z,989.69
2022-12-05T04:22:39.177Z,989.65
2022-12-05T04:23:41.441Z,989.63
2022-12-05T04:24:39.052Z,989.66
2022-12-05T04:25:39.095Z,989.63
2022-12-05T04:26:39.107Z,989.76
2022-12-05T04:27:39.254Z,989.72
2022-12-05T04:28:39.097Z,989.80
2022-12-05T04:29:39.035Z,989.77
2022-12-05T04:30:39.095Z,989.78
2022-12-05T04:31:39.106Z,989.83
2022-12-05T04:32:39.054Z,989.82
2022-12-05T04:33:39.187Z,989.87
2022-12-05T04:34:39.032Z,989.85
2022-12-05T04:35:39.047Z,989.91
2022-12-05T04:36:39.052Z,989.94
2022-12-05T04:37:39.038Z,989.97
2022-12-05T04:38:39.076Z,989.95
2022-12-05T04:39:39.018Z,989.97
2022-12-05T04:40:38.993Z,989.93
2022-12-05T04:41:39.029Z,989.90
2022-12-05T04:42:39.014Z,989.95
2022-12-05T04:43:38.999Z,989.90
2022-12-05T04:44:39.064Z,989.93
2022-12-05T04:45:39.019Z,989.96
2022-12-05T04:46:39.067Z,990.00
2022-12-05T04:47:39.001Z,989.95
2022-12-05T04:48:39.004Z,989.99
2022-12-05T04:49:39.018Z,990.08
2022-12-05T04:50:39.003Z,990.04
2022-12-05T04:51:38.978Z,989.98
2022-12-05T04:52:38.956Z,989.97
2022-12-05T04:53:38.955Z,990.00
2022-12-05T04:54:38.939Z,990.07
2022-12-05T04:55:39.078Z,990.00
2022-12-05T04:56:38.952Z,990.00
2022-12-05T04:57:38.903Z,989.97
2022-12-05T04:58:38.970Z,990.02
2022-12-05T04:59:38.924Z,990.14
2022-12-05T05:00:38.957Z,990.06
2022-12-05T05:01:38.983Z,990.03
2022-12-05T05:02:38.915Z,990.12
2022-12-05T05:03:38.902Z,990.10
2022-12-05T05:04:38.903Z,990.11
2022-12-05T05:05:38.945Z,990.13
2022-12-05T05:06:38.901Z,990.14
2022-12-05T05:07:38.974Z,990.12
2022-12-05T05:08:38.871Z,990.06
2022-12-05T05:09:38.868Z,990.08
2022-12-05T05:10:38.890Z,990.11
2022-12-05T05:11:38.928Z,990.08
2022-12-05T05:12:38.855Z,990.12
2022-12-05T05:13:38.871Z,990.15
2022-12-05T05:14:38.868Z,990.16
2022-12-05T05:15:38.944Z,990.09
2022-12-05T05:16:38.853Z,990.10
2022-12-05T05:17:38.839Z,990.12
2022-12-05T05:18:38.810Z,990.10
2022-12-05T05:19:38.852Z,990.11
2022-12-05T05:20:38.800Z,990.19
2022-12-05T05:21:38.771Z,990.13
2022-12-05T05:22:39.205Z,990.16
2022-12-05T05:23:38.796Z,990.13
2022-12-05T05:24:38.793Z,990.14
2022-12-05T05:25:38.806Z,990.17
2022-12-05T05:26:38.810Z,990.19
2022-12-05T05:27:38.762Z,990.23
2022-12-05T05:28:38.811Z,990.26
2022-12-05T05:29:38.735Z,990.17
2022-12-05T05:30:38.789Z,990.20
2022-12-05T05:31:38.835Z,990.19
2022-12-05T05:32:38.725Z,990.20
2022-12-05T05:33:38.834Z,990.13
2022-12-05T05:34:38.755Z,990.25
2022-12-05T05:35:38.718Z,990.22
2022-12-05T05:36:38.707Z,990.23
2022-12-05T05:37:38.722Z,990.31
2022-12-05T05:38:38.721Z,990.29
2022-12-05T05:39:38.735Z,990.26
2022-12-05T05:40:38.670Z,990.22
2022-12-05T05:41:38.725Z,990.23
2022-12-05T05:42:38.701Z,990.28
2022-12-05T05:43:38.678Z,990.25
2022-12-05T05:44:38.678Z,990.27
2022-12-05T05:45:38.703Z,990.30
2022-12-05T05:46:38.786Z,990.24
2022-12-05T05:47:38.702Z,990.29
2022-12-05T05:48:38.643Z,990.27
2022-12-05T05:49:38.664Z,990.36
2022-12-05T05:50:38.705Z,990.34
2022-12-05T05:51:38.640Z,990.31
2022-12-05T05:52:38.681Z,990.33
2022-12-05T05:53:38.660Z,990.29
2022-12-05T05:54:38.656Z,990.32
2022-12-05T05:55:38.649Z,990.29
2022-12-05T05:56:38.650Z,990.32
2022-12-05T05:57:38.717Z,990.33
2022-12-05T05:58:38.635Z,990.38
2022-12-05T05:59:38.629Z,990.34
2022-12-05T06:00:38.602Z,990.37
2022-12-05T06:01:38.626Z,990.37
2022-12-05T06:02:38.687Z,990.47
2022-12-05T06:03:38.730Z,990.44
2022-12-05T06:04:38.563Z,990.38
2022-12-05T06:05:38.583Z,990.37
2022-12-05T06:06:38.691Z,990.35
2022-12-05T06:07:38.623Z,990.44
2022-12-05T06:08:38.546Z,990.38
2022-12-05T06:09:38.560Z,990.38
2022-12-05T06:10:38.534Z,990.46
2022-12-05T06:11:38.560Z,990.47
2022-12-05T06:12:38.656Z,990.44
2022-12-05T06:13:38.531Z,990.40
2022-12-05T06:14:38.514Z,990.36
2022-12-05T06:15:38.518Z,990.40
2022-12-05T06:16:38.598Z,990.37
2022-12-05T06:17:38.527Z,990.34
2022-12-05T06:18:38.478Z,990.34
2022-12-05T06:19:38.499Z,990.37
2022-12-05T06:20:38.489Z,990.35
2022-12-05T06:21:38.514Z,990.36
2022-12-05T06:22:38.505Z,990.36
2022-12-05T06:23:38.581Z,990.37
2022-12-05T06:24:38.477Z,990.45
2022-12-05T06:25:38.475Z,990.42
2022-12-05T06:26:38.496Z,990.34
2022-12-05T06:27:38.488Z,990.41
2022-12-05T06:28:38.503Z,990.41
2022-12-05T06:29:38.461Z,990.44
2022-12-05T06:30:38.482Z,990.42
2022-12-05T06:31:38.494Z,990.46
2022-12-05T06:32:38.441Z,990.43
2022-12-05T06:33:38.460Z,990.47
2022-12-05T06:34:38.545Z,990.46
2022-12-05T06:35:38.439Z,990.48
2022-12-05T06:36:38.406Z,990.49
2022-12-05T06:37:38.411Z,990.49
2022-12-05T06:38:42.076Z,990.52
2022-12-05T06:39:38.433Z,990.50
2022-12-05T06:40:38.413Z,990.50
2022-12-05T06:41:38.388Z,990.53
2022-12-05T06:42:38.372Z,990.54
2022-12-05T06:43:38.381Z,990.55
2022-12-05T06:44:38.397Z,990.58
2022-12-05T06:45:38.484Z,990.62
2022-12-05T06:46:38.381Z,990.54
2022-12-05T06:47:38.355Z,990.53
2022-12-05T06:48:38.380Z,990.51
2022-12-05T06:49:38.456Z,990.50
2022-12-05T06:50:38.453Z,990.51
2022-12-05T06:51:38.325Z,990.43
2022-12-05T06:52:38.372Z,990.52
2022-12-05T06:53:38.369Z,990.42
2022-12-05T06:54:38.342Z,990.50
2022-12-05T06:55:38.305Z,990.52
2022-12-05T06:56:38.352Z,990.42
2022-12-05T06:57:38.338Z,990.52
2022-12-05T06:58:38.337Z,990.48
2022-12-05T06:59:38.304Z,990.46
2022-12-05T07:00:38.293Z,990.53
2022-12-05T07:01:38.355Z,990.54
2022-12-05T07:02:38.296Z,990.51
2022-12-05T07:03:38.284Z,990.64
2022-12-05T07:04:38.267Z,990.61
2022-12-05T07:05:38.265Z,990.63
2022-12-05T07:06:38.252Z,990.61
2022-12-05T07:07:38.341Z,990.67
2022-12-05T07:08:38.269Z,990.66
2022-12-05T07:09:38.261Z,990.66
2022-12-05T07:10:38.235Z,990.70
2022-12-05T07:11:38.208Z,990.67
2022-12-05T07:12:38.272Z,990.71
2022-12-05T07:13:38.207Z,990.70
2022-12-05T07:14:53.570Z,990.67
2022-12-05T07:15:40.202Z,990.71
2022-12-05T07:16:38.166Z,990.71
2022-12-05T07:17:38.169Z,990.74
2022-12-05T07:18:38.300Z,990.75
2022-12-05T07:19:38.190Z,990.82
2022-12-05T07:21:10.198Z,990.82
2022-12-05T07:21:40.145Z,990.82
2022-12-05T07:22:38.162Z,990.84
2022-12-05T07:23:38.187Z,990.83
2022-12-05T07:24:38.183Z,990.85
2022-12-05T07:25:38.360Z,990.84
2022-12-05T07:26:38.158Z,990.79
2022-12-05T07:27:38.164Z,990.82
2022-12-05T07:28:38.167Z,990.83
2022-12-05T07:29:38.220Z,990.90
2022-12-05T07:30:38.123Z,990.86
2022-12-05T07:31:38.165Z,990.85
2022-12-05T07:32:38.101Z,990.92
2022-12-05T07:33:38.116Z,990.97
2022-12-05T07:34:38.136Z,990.91
2022-12-05T07:35:38.109Z,990.92
2022-12-05T07:36:38.134Z,990.95
2022-12-05T07:37:38.118Z,990.94
2022-12-05T07:38:38.101Z,990.96
2022-12-05T07:39:38.080Z,991.01
2022-12-05T07:40:38.098Z,990.97
2022-12-05T07:41:38.065Z,990.97
2022-12-05T07:42:38.059Z,990.97
2022-12-05T07:43:38.058Z,991.00
2022-12-05T07:44:38.063Z,991.06
2022-12-05T07:45:38.270Z,991.03
2022-12-05T07:46:38.054Z,991.07
2022-12-05T07:47:38.100Z,991.09
2022-12-05T07:48:38.058Z,991.10
2022-12-05T07:49:38.021Z,991.16
2022-12-05T07:50:38.045Z,991.15
2022-12-05T07:51:38.136Z,991.11
2022-12-05T07:52:38.003Z,991.16
2022-12-05T07:53:38.021Z,991.10
2022-12-05T07:54:37.993Z,991.10
2022-12-05T07:55:38.000Z,991.12
2022-12-05T07:56:40.917Z,991.10
2022-12-05T07:57:38.976Z,991.15
2022-12-05T07:58:37.994Z,991.18
2022-12-05T07:59:37.975Z,991.13
2022-12-05T08:00:37.986Z,991.24
2022-12-05T08:01:38.029Z,991.17
2022-12-05T08:02:40.836Z,991.27
2022-12-05T08:03:38.935Z,991.34
2022-12-05T08:04:37.994Z,991.31
2022-12-05T08:05:37.933Z,991.28
2022-12-05T08:06:37.967Z,991.26
2022-12-05T08:07:38.112Z,991.27
2022-12-05T08:08:37.946Z,991.29
2022-12-05T08:09:37.935Z,991.27
2022-12-05T08:10:37.949Z,991.27
2022-12-05T08:11:37.910Z,991.28
2022-12-05T08:12:37.935Z,991.21
2022-12-05T08:13:37.912Z,991.31
2022-12-05T08:14:37.932Z,991.26
2022-12-05T08:15:37.902Z,991.25
2022-12-05T08:16:37.990Z,991.26
2022-12-05T08:17:37.928Z,991.30
2022-12-05T08:18:38.024Z,991.27
2022-12-05T08:19:37.874Z,991.30
2022-12-05T08:20:37.866Z,991.32
2022-12-05T08:21:37.861Z,991.37
2022-12-05T08:22:37.882Z,991.37
2022-12-05T08:23:37.860Z,991.30
2022-12-05T08:24:37.910Z,991.32
2022-12-05T08:25:37.824Z,991.30
2022-12-05T08:26:37.864Z,991.28
2022-12-05T08:27:37.831Z,991.35
2022-12-05T08:28:37.871Z,991.33
2022-12-05T08:29:37.858Z,991.29
2022-12-05T08:30:37.851Z,991.29
2022-12-05T08:31:37.802Z,991.32
2022-12-05T08:32:37.853Z,991.36
2022-12-05T08:33:37.827Z,991.42
2022-12-05T08:34:37.776Z,991.37
2022-12-05T08:35:37.807Z,991.37
2022-12-05T08:36:37.796Z,991.46
2022-12-05T08:37:37.788Z,991.43
2022-12-05T08:38:37.800Z,991.44
2022-12-05T08:39:38.924Z,991.47
2022-12-05T08:40:37.820Z,991.45
2022-12-05T08:41:37.773Z,991.52
2022-12-05T08:42:37.762Z,991.49
2022-12-05T08:43:37.728Z,991.47
2022-12-05T08:44:37.768Z,991.52
2022-12-05T08:45:37.761Z,991.48
2022-12-05T08:46:37.944Z,991.50
2022-12-05T08:47:37.719Z,991.56
2022-12-05T08:48:37.715Z,991.48
2022-12-05T08:49:37.726Z,991.49
2022-12-05T08:50:37.703Z,991.46
2022-12-05T08:51:37.731Z,991.46
2022-12-05T08:52:37.713Z,991.47
2022-12-05T08:53:43.891Z,991.42
2022-12-05T08:54:39.686Z,991.35
2022-12-05T08:55:37.691Z,991.31
2022-12-05T08:56:37.696Z,991.34
2022-12-05T08:57:37.795Z,991.41
2022-12-05T08:58:37.664Z,991.39
2022-12-05T08:59:37.679Z,991.45
2022-12-05T09:00:37.704Z,991.45
2022-12-05T09:01:37.736Z,991.46
2022-12-05T09:02:37.777Z,991.52
2022-12-05T09:03:37.666Z,991.48
2022-12-05T09:04:37.646Z,991.53
2022-12-05T09:05:37.604Z,991.49
2022-12-05T09:06:37.598Z,991.52
2022-12-05T09:07:37.732Z,991.50
2022-12-05T09:08:37.613Z,991.54
2022-12-05T09:09:37.634Z,991.58
2022-12-05T09:10:37.618Z,991.59
2022-12-05T09:11:37.578Z,991.56
2022-12-05T09:12:37.601Z,991.61
2022-12-05T09:13:37.613Z,991.65
2022-12-05T09:14:37.587Z,991.67
2022-12-05T09:15:37.637Z,991.67
2022-12-05T09:16:39.067Z,991.64
2022-12-05T09:17:37.602Z,991.67
2022-12-05T09:18:37.608Z,991.64
2022-12-05T09:19:37.679Z,991.66
2022-12-05T09:20:37.585Z,991.67
2022-12-05T09:21:37.594Z,991.65
2022-12-05T09:22:37.533Z,991.65
2022-12-05T09:23:37.549Z,991.70
2022-12-05T09:24:37.568Z,991.62
2022-12-05T09:25:37.540Z,991.70
2022-12-05T09:26:37.544Z,991.75
2022-12-05T09:27:37.523Z,991.74
2022-12-05T09:28:37.537Z,991.75
2022-12-05T09:29:37.528Z,991.76
2022-12-05T09:30:37.629Z,991.76
2022-12-05T09:31:37.577Z,991.80
2022-12-05T09:32:37.519Z,991.75
2022-12-05T09:33:37.460Z,991.77
2022-12-05T09:34:37.484Z,991.76
2022-12-05T09:35:37.473Z,991.79
2022-12-05T09:36:37.514Z,991.85
2022-12-05T09:37:39.657Z,991.78
2022-12-05T09:38:38.477Z,991.75
2022-12-05T09:39:37.491Z,991.84
2022-12-05T09:40:37.452Z,991.73
2022-12-05T09:41:37.458Z,991.69
2022-12-05T09:42:37.471Z,991.69
2022-12-05T09:43:37.434Z,991.73
2022-12-05T09:44:37.445Z,991.74
2022-12-05T09:45:37.439Z,991.83
2022-12-05T09:46:37.470Z,991.79
2022-12-05T09:47:37.439Z,991.73
2022-12-05T09:48:37.428Z,991.76
2022-12-05T09:49:37.401Z,991.74
2022-12-05T09:50:37.392Z,991.72
2022-12-05T09:51:37.399Z,991.73
2022-12-05T09:52:37.415Z,991.66
2022-12-05T09:53:37.387Z,991.68
2022-12-05T09:54:37.409Z,991.67
2022-12-05T09:55:37.401Z,991.63
2022-12-05T09:56:37.381Z,991.66
2022-12-05T09:57:37.403Z,991.71
2022-12-05T09:58:37.378Z,991.74
2022-12-05T09:59:37.362Z,991.67
2022-12-05T10:00:37.362Z,991.68
2022-12-05T10:01:37.394Z,991.67
2022-12-05T10:02:37.337Z,991.69
2022-12-05T10:03:37.447Z,991.72
2022-12-05T10:04:37.389Z,991.66
2022-12-05T10:05:37.307Z,991.74
2022-12-05T10:06:37.314Z,991.70
2022-12-05T10:07:37.382Z,991.71
2022-12-05T10:08:37.346Z,991.66
2022-12-05T10:09:37.316Z,991.69
2022-12-05T10:10:37.312Z,991.69
2022-12-05T10:11:37.263Z,991.69
2022-12-05T10:12:37.325Z,991.73
2022-12-05T10:13:37.265Z,991.65
2022-12-05T10:14:37.323Z,991.73
2022-12-05T10:15:37.316Z,991.71
2022-12-05T10:16:37.294Z,991.74
2022-12-05T10:17:37.258Z,991.72
2022-12-05T10:18:37.274Z,991.78
2022-12-05T10:19:37.302Z,991.78
2022-12-05T10:20:37.232Z,991.80
2022-12-05T10:21:37.276Z,991.76
2022-12-05T10:22:37.229Z,991.81
2022-12-05T10:24:38.320Z,991.75
2022-12-05T10:25:37.200Z,991.80
2022-12-05T10:26:37.206Z,991.75
2022-12-05T10:27:40.404Z,991.78
2022-12-05T10:28:37.239Z,991.75
2022-12-05T10:29:37.199Z,991.70
2022-12-05T10:30:37.182Z,991.74
2022-12-05T10:31:37.213Z,991.76
2022-12-05T10:32:37.181Z,991.73
2022-12-05T10:33:37.165Z,991.78
2022-12-05T10:34:37.190Z,991.72
2022-12-05T10:35:37.300Z,991.78
2022-12-05T10:36:37.175Z,991.83
2022-12-05T10:37:37.137Z,991.81
2022-12-05T10:38:37.141Z,991.85
2022-12-05T10:39:37.155Z,991.86
2022-12-05T10:40:37.147Z,991.89
2022-12-05T10:41:37.134Z,991.84
2022-12-05T10:42:37.133Z,991.85
2022-12-05T10:43:37.115Z,991.86
2022-12-05T10:44:37.099Z,991.91
2022-12-05T10:45:37.128Z,991.86
2022-12-05T10:46:37.294Z,991.88
2022-12-05T10:47:37.122Z,991.84
2022-12-05T10:48:37.095Z,991.90
2022-12-05T10:49:37.094Z,991.87
2022-12-05T10:50:37.090Z,991.82
2022-12-05T10:51:37.887Z,991.82
2022-12-05T10:52:38.119Z,991.84
2022-12-05T10:53:37.070Z,991.80
2022-12-05T10:54:37.020Z,991.76
2022-12-05T10:55:37.069Z,991.82
2022-12-05T10:56:37.062Z,991.76
2022-12-05T10:57:37.073Z,991.77
2022-12-05T10:58:37.082Z,991.72
2022-12-05T10:59:37.044Z,991.72
2022-12-05T11:00:37.065Z,991.68
2022-12-05T11:01:37.082Z,991.76
2022-12-05T11:02:37.028Z,991.69
2022-12-05T11:03:37.160Z,991.69
2022-12-05T11:04:37.025Z,991.64
2022-12-05T11:05:37.048Z,991.62
2022-12-05T11:06:37.025Z,991.64
2022-12-05T11:07:37.102Z,991.61
2022-12-05T11:09:03.277Z,991.62
2022-12-05T11:09:39.026Z,991.64
2022-12-05T11:10:36.966Z,991.65
2022-12-05T11:11:36.981Z,991.71
2022-12-05T11:12:36.995Z,991.68
2022-12-05T11:13:36.968Z,991.66
2022-12-05T11:14:36.960Z,991.70
2022-12-05T11:15:36.952Z,991.70
2022-12-05T11:16:37.033Z,991.73
2022-12-05T11:17:36.942Z,991.67
2022-12-05T11:18:36.927Z,991.75
2022-12-05T11:19:37.014Z,991.71
2022-12-05T11:20:36.942Z,991.69
2022-12-05T11:21:36.909Z,991.69
2022-12-05T11:22:36.914Z,991.76
2022-12-05T11:23:36.907Z,991.75
2022-12-05T11:24:36.921Z,991.64
2022-12-05T11:25:36.956Z,991.68
2022-12-05T11:26:36.920Z,991.69
2022-12-05T11:27:36.854Z,991.68
2022-12-05T11:28:36.924Z,991.65
2022-12-05T11:29:36.893Z,991.69
2022-12-05T11:30:36.972Z,991.67
2022-12-05T11:31:36.872Z,991.67
2022-12-05T11:32:36.855Z,991.67
2022-12-05T11:33:36.855Z,991.67
2022-12-05T11:34:36.826Z,991.64
2022-12-05T11:35:36.852Z,991.63
2022-12-05T11:36:36.816Z,991.67
2022-12-05T11:37:37.838Z,991.61
2022-12-05T11:38:36.824Z,991.59
2022-12-05T11:39:36.845Z,991.63
2022-12-05T11:40:38.820Z,991.61
2022-12-05T11:41:36.954Z,991.59
2022-12-05T11:42:36.794Z,991.64
2022-12-05T11:43:36.829Z,991.62
2022-12-05T11:44:36.848Z,991.62
2022-12-05T11:45:36.760Z,991.58
2022-12-05T11:46:36.840Z,991.62
2022-12-05T11:47:36.909Z,991.57
2022-12-05T11:48:36.795Z,991.60
2022-12-05T11:49:36.783Z,991.59
2022-12-05T11:50:36.733Z,991.60
2022-12-05T11:51:36.758Z,991.60
2022-12-05T11:52:40.605Z,991.55
2022-12-05T11:53:36.764Z,991.58
2022-12-05T11:55:03.857Z,991.54
2022-12-05T11:55:37.755Z,991.62
2022-12-05T11:56:36.724Z,991.59
2022-12-05T11:57:36.769Z,991.61
2022-12-05T11:58:36.847Z,991.62
2022-12-05T11:59:36.718Z,991.61
2022-12-05T12:00:36.731Z,991.58
2022-12-05T12:01:36.769Z,991.54
2022-12-05T12:02:36.788Z,991.52
2022-12-05T12:03:36.860Z,991.61
2022-12-05T12:04:36.675Z,991.61
2022-12-05T12:05:36.665Z,991.62
2022-12-05T12:06:36.702Z,991.60
2022-12-05T12:07:36.712Z,991.60
2022-12-05T12:08:36.648Z,991.56
2022-12-05T12:09:36.695Z,991.55
2022-12-05T12:10:36.646Z,991.59
2022-12-05T12:11:36.688Z,991.63
2022-12-05T12:12:36.641Z,991.62
2022-12-05T12:13:36.639Z,991.64
2022-12-05T12:14:36.629Z,991.62
2022-12-05T12:15:36.645Z,991.64
2022-12-05T12:16:36.735Z,991.61
2022-12-05T12:17:36.638Z,991.59
2022-12-05T12:18:36.586Z,991.67
2022-12-05T12:19:36.596Z,991.61
2022-12-05T12:20:36.631Z,991.63
2022-12-05T12:21:38.742Z,991.61
2022-12-05T12:22:37.540Z,991.62
2022-12-05T12:23:36.579Z,991.68
2022-12-05T12:24:36.600Z,991.68
2022-12-05T12:25:36.597Z,991.68
2022-12-05T12:26:36.554Z,991.72
2022-12-05T12:27:36.546Z,991.64
2022-12-05T12:28:36.546Z,991.74
2022-12-05T12:29:36.927Z,991.70